sensor_id;sensor_type;location;lat;lon;timestamp;temperature;humidity
45535;DHT22;35892;48.798;9.698;2022-12-07T00:01:31;4.50;99.90
45535;DHT22;35892;48.798;9.698;2022-12-07T00:04:01;4.50;99.90
45535;DHT22;35892;48.798;9.698;2022-12-07T00:06:37;4.50;99.90
45535;DHT22;35892;48.798;9.698;2022-12-07T00:09:06;4.40;99.90
45535;DHT22;35892;48.798;9.698;2022-12-07T00:11:33;4.50;99.90
45535;DHT22;35892;48.798;9.698;2022-12-07T00:14:02;4.50;99.90
45535;DHT22;35892;48.798;9.698;2022-12-07T00:16:33;4.50;99.90
45535;DHT22;35892;48.798;9.698;2022-12-07T00:19:00;4.50;99.90
45535;DHT22;35892;48.798;9.698;2022-12-07T00:21:29;4.50;99.90
45535;DHT22;35892;48.798;9.698;2022-12-07T00:23:58;4.50;99.90
45535;DHT22;35892;48.798;9.698;2022-12-07T00:26:29;4.50;99.90
45535;DHT22;35892;48.798;9.698;2022-12-07T00:29:00;4.40;99.90
45535;DHT22;35892;48.798;9.698;2022-12-07T00:31:31;4.50;99.90
45535;DHT22;35892;48.798;9.698;2022-12-07T00:34:00;4.50;99.90
45535;DHT22;35892;48.798;9.698;2022-12-07T00:36:29;4.50;99.90
45535;DHT22;35892;48.798;9.698;2022-12-07T00:38:58;4.50;99.90
45535;DHT22;35892;48.798;9.698;2022-12-07T00:41:27;4.50;99.90
45535;DHT22;35892;48.798;9.698;2022-12-07T00:43:54;4.50;99.90
45535;DHT22;35892;48.798;9.698;2022-12-07T00:46:21;4.50;99.90
45535;DHT22;35892;48.798;9.698;2022-12-07T00:48:52;4.50;99.90
45535;DHT22;35892;48.798;9.698;2022-12-07T00:51:21;4.40;99.90
45535;DHT22;35892;48.798;9.698;2022-12-07T00:53:52;4.50;99.90
45535;DHT22;35892;48.798;9.698;2022-12-07T00:56:22;4.50;99.90
45535;DHT22;35892;48.798;9.698;2022-12-07T00:59:00;4.50;99.90
45535;DHT22;35892;48.798;9.698;2022-12-07T01:01:34;4.50;99.90
45535;DHT22;35892;48.798;9.698;2022-12-07T01:04:04;4.50;99.90
45535;DHT22;35892;48.798;9.698;2022-12-07T01:06:31;4.50;99.90
45535;DHT22;35892;48.798;9.698;2022-12-07T01:08:58;4.50;99.90
45535;DHT22;35892;48.798;9.698;2022-12-07T01:11:28;4.50;99.90
45535;DHT22;35892;48.798;9.698;2022-12-07T01:13:59;4.50;99.90
45535;DHT22;35892;48.798;9.698;2022-12-07T01:16:28;4.50;99.90
45535;DHT22;35892;48.798;9.698;2022-12-07T01:18:57;4.50;99.90
45535;DHT22;35892;48.798;9.698;2022-12-07T01:21:27;4.50;99.90
45535;DHT22;35892;48.798;9.698;2022-12-07T01:23:56;4.50;99.90
45535;DHT22;35892;48.798;9.698;2022-12-07T01:26:24;4.50;99.90
45535;DHT22;35892;48.798;9.698;2022-12-07T01:28:52;4.50;99.90
45535;DHT22;35892;48.798;9.698;2022-12-07T01:31:23;4.50;99.90
45535;DHT22;35892;48.798;9.698;2022-12-07T01:33:55;4.50;99.90
45535;DHT22;35892;48.798;9.698;2022-12-07T01:36:33;4.50;99.90
45535;DHT22;35892;48.798;9.698;2022-12-07T01:39:04;4.50;99.90
45535;DHT22;35892;48.798;9.698;2022-12-07T01:41:33;4.50;99.90
45535;DHT22;35892;48.798;9.698;2022-12-07T01:44:20;4.50;99.90
45535;DHT22;35892;48.798;9.698;2022-12-07T01:46:55;4.50;99.90
45535;DHT22;35892;48.798;9.698;2022-12-07T01:49:35;4.50;99.90
45535;DHT22;35892;48.798;9.698;2022-12-07T01:52:25;4.60;99.90
45535;DHT22;35892;48.798;9.698;2022-12-07T01:54:57;4.60;99.90
45535;DHT22;35892;48.798;9.698;2022-12-07T01:57:28;4.60;99.90
45535;DHT22;35892;48.798;9.698;2022-12-07T01:59:58;4.50;99.90
45535;DHT22;35892;48.798;9.698;2022-12-07T02:02:29;4.60;99.90
45535;DHT22;35892;48.798;9.698;2022-12-07T02:05:00;4.60;99.90
45535;DHT22;35892;48.798;9.698;2022-12-07T02:07:27;4.60;99.90
45535;DHT22;35892;48.798;9.698;2022-12-07T02:09:57;4.70;99.90
45535;DHT22;35892;48.798;9.698;2022-12-07T02:12:47;4.70;99.90
45535;DHT22;35892;48.798;9.698;2022-12-07T02:15:18;4.60;99.90
45535;DHT22;35892;48.798;9.698;2022-12-07T02:20:59;4.60;99.90
45535;DHT22;35892;48.798;9.698;2022-12-07T02:23:40;4.50;99.90
45535;DHT22;35892;48.798;9.698;2022-12-07T02:29:10;4.60;99.90
45535;DHT22;35892;48.798;9.698;2022-12-07T02:31:44;4.60;99.90
45535;DHT22;35892;48.798;9.698;2022-12-07T02:34:26;4.60;99.90
45535;DHT22;35892;48.798;9.698;2022-12-07T02:36:59;4.40;99.90
45535;DHT22;35892;48.798;9.698;2022-12-07T02:39:47;4.50;99.90
45535;DHT22;35892;48.798;9.698;2022-12-07T02:42:28;4.50;99.90
45535;DHT22;35892;48.798;9.698;2022-12-07T02:44:57;4.50;99.90
45535;DHT22;35892;48.798;9.698;2022-12-07T02:47:26;4.50;99.90
45535;DHT22;35892;48.798;9.698;2022-12-07T02:49:56;4.50;99.90
45535;DHT22;35892;48.798;9.698;2022-12-07T02:52:23;4.50;99.90
45535;DHT22;35892;48.798;9.698;2022-12-07T02:54:49;4.50;99.90
45535;DHT22;35892;48.798;9.698;2022-12-07T03:00:09;4.50;99.90
45535;DHT22;35892;48.798;9.698;2022-12-07T03:03:06;4.40;99.90
45535;DHT22;35892;48.798;9.698;2022-12-07T03:08:35;4.30;99.90
45535;DHT22;35892;48.798;9.698;2022-12-07T03:11:12;4.20;99.90
45535;DHT22;35892;48.798;9.698;2022-12-07T03:14:00;4.30;99.90
45535;DHT22;35892;48.798;9.698;2022-12-07T03:16:35;4.30;99.90
45535;DHT22;35892;48.798;9.698;2022-12-07T03:19:17;4.40;99.90
45535;DHT22;35892;48.798;9.698;2022-12-07T03:21:47;4.30;99.90
45535;DHT22;35892;48.798;9.698;2022-12-07T03:24:19;4.20;99.90
45535;DHT22;35892;48.798;9.698;2022-12-07T03:27:05;4.20;99.90
45535;DHT22;35892;48.798;9.698;2022-12-07T03:29:41;4.20;99.90
45535;DHT22;35892;48.798;9.698;2022-12-07T03:32:26;4.10;99.90
45535;DHT22;35892;48.798;9.698;2022-12-07T03:37:36;4.10;99.90
45535;DHT22;35892;48.798;9.698;2022-12-07T03:40:13;4.00;99.90
45535;DHT22;35892;48.798;9.698;2022-12-07T03:42:42;4.00;99.90
45535;DHT22;35892;48.798;9.698;2022-12-07T03:45:10;4.00;99.90
45535;DHT22;35892;48.798;9.698;2022-12-07T03:48:03;4.00;99.90
45535;DHT22;35892;48.798;9.698;2022-12-07T03:50:41;3.90;99.90
45535;DHT22;35892;48.798;9.698;2022-12-07T03:53:24;3.90;99.90
45535;DHT22;35892;48.798;9.698;2022-12-07T03:55:56;4.00;99.90
45535;DHT22;35892;48.798;9.698;2022-12-07T03:58:24;3.90;99.90
45535;DHT22;35892;48.798;9.698;2022-12-07T04:00:52;3.80;99.90
45535;DHT22;35892;48.798;9.698;2022-12-07T04:03:21;3.80;99.90
45535;DHT22;35892;48.798;9.698;2022-12-07T04:05:48;3.70;99.90
45535;DHT22;35892;48.798;9.698;2022-12-07T04:08:17;3.80;99.90
45535;DHT22;35892;48.798;9.698;2022-12-07T04:10:44;3.80;99.90
45535;DHT22;35892;48.798;9.698;2022-12-07T04:13:11;3.90;99.90
45535;DHT22;35892;48.798;9.698;2022-12-07T04:15:38;3.80;99.90
45535;DHT22;35892;48.798;9.698;2022-12-07T04:18:05;3.80;99.90
45535;DHT22;35892;48.798;9.698;2022-12-07T04:20:33;3.90;99.90
45535;DHT22;35892;48.798;9.698;2022-12-07T04:23:02;4.00;99.90
45535;DHT22;35892;48.798;9.698;2022-12-07T04:25:29;4.00;99.90
45535;DHT22;35892;48.798;9.698;2022-12-07T04:27:58;3.90;99.90
45535;DHT22;35892;48.798;9.698;2022-12-07T04:30:25;3.90;99.90
45535;DHT22;35892;48.798;9.698;2022-12-07T04:32:54;3.80;99.90
45535;DHT22;35892;48.798;9.698;2022-12-07T04:35:21;3.80;99.90
45535;DHT22;35892;48.798;9.698;2022-12-07T04:37:50;3.70;99.90
45535;DHT22;35892;48.798;9.698;2022-12-07T04:40:21;3.70;99.90
45535;DHT22;35892;48.798;9.698;2022-12-07T04:42:48;3.70;99.90
45535;DHT22;35892;48.798;9.698;2022-12-07T04:45:17;3.70;99.90
45535;DHT22;35892;48.798;9.698;2022-12-07T04:47:43;3.70;99.90
45535;DHT22;35892;48.798;9.698;2022-12-07T04:50:10;3.70;99.90
45535;DHT22;35892;48.798;9.698;2022-12-07T04:52:37;3.80;99.90
45535;DHT22;35892;48.798;9.698;2022-12-07T04:55:04;3.80;99.90
45535;DHT22;35892;48.798;9.698;2022-12-07T04:57:31;3.80;99.90
45535;DHT22;35892;48.798;9.698;2022-12-07T05:00:00;3.80;99.90
45535;DHT22;35892;48.798;9.698;2022-12-07T05:02:27;3.70;99.90
45535;DHT22;35892;48.798;9.698;2022-12-07T05:04:56;3.70;99.90
45535;DHT22;35892;48.798;9.698;2022-12-07T05:07:23;3.80;99.90
45535;DHT22;35892;48.798;9.698;2022-12-07T05:09:52;3.90;99.90
45535;DHT22;35892;48.798;9.698;2022-12-07T05:12:19;3.90;99.90
45535;DHT22;35892;48.798;9.698;2022-12-07T05:14:45;3.90;99.90
45535;DHT22;35892;48.798;9.698;2022-12-07T05:17:12;3.90;99.90
45535;DHT22;35892;48.798;9.698;2022-12-07T05:19:39;3.80;99.90
45535;DHT22;35892;48.798;9.698;2022-12-07T05:22:05;3.90;99.90
45535;DHT22;35892;48.798;9.698;2022-12-07T05:24:32;4.00;99.90
45535;DHT22;35892;48.798;9.698;2022-12-07T05:26:59;3.90;99.90
45535;DHT22;35892;48.798;9.698;2022-12-07T05:29:26;3.90;99.90
45535;DHT22;35892;48.798;9.698;2022-12-07T05:31:53;4.00;99.90
45535;DHT22;35892;48.798;9.698;2022-12-07T05:34:20;4.10;99.90
45535;DHT22;35892;48.798;9.698;2022-12-07T05:36:46;4.30;99.90
45535;DHT22;35892;48.798;9.698;2022-12-07T05:39:13;4.30;99.90
45535;DHT22;35892;48.798;9.698;2022-12-07T05:41:40;4.10;99.90
45535;DHT22;35892;48.798;9.698;2022-12-07T05:44:28;4.00;99.90
45535;DHT22;35892;48.798;9.698;2022-12-07T05:46:54;4.00;99.90
45535;DHT22;35892;48.798;9.698;2022-12-07T05:49:21;4.00;99.90
45535;DHT22;35892;48.798;9.698;2022-12-07T05:51:48;4.00;99.90
45535;DHT22;35892;48.798;9.698;2022-12-07T05:54:14;4.00;99.90
45535;DHT22;35892;48.798;9.698;2022-12-07T05:56:41;4.00;99.90
45535;DHT22;35892;48.798;9.698;2022-12-07T05:59:08;3.90;99.90
45535;DHT22;35892;48.798;9.698;2022-12-07T06:04:25;3.90;99.90
45535;DHT22;35892;48.798;9.698;2022-12-07T06:06:53;3.90;99.90
45535;DHT22;35892;48.798;9.698;2022-12-07T06:09:22;3.80;99.90
45535;DHT22;35892;48.798;9.698;2022-12-07T06:11:51;3.70;99.90
45535;DHT22;35892;48.798;9.698;2022-12-07T06:14:37;3.70;99.90
45535;DHT22;35892;48.798;9.698;2022-12-07T06:17:04;3.60;99.90
45535;DHT22;35892;48.798;9.698;2022-12-07T06:19:31;3.60;99.90
45535;DHT22;35892;48.798;9.698;2022-12-07T06:22:01;3.60;99.90
45535;DHT22;35892;48.798;9.698;2022-12-07T06:24:31;3.60;99.90
45535;DHT22;35892;48.798;9.698;2022-12-07T06:26:58;3.60;99.90
45535;DHT22;35892;48.798;9.698;2022-12-07T06:29:25;3.50;99.90
45535;DHT22;35892;48.798;9.698;2022-12-07T06:31:52;3.50;99.90
45535;DHT22;35892;48.798;9.698;2022-12-07T06:34:20;3.40;99.90
45535;DHT22;35892;48.798;9.698;2022-12-07T06:36:50;3.50;99.90
45535;DHT22;35892;48.798;9.698;2022-12-07T06:39:26;3.40;99.90
45535;DHT22;35892;48.798;9.698;2022-12-07T06:41:53;3.50;99.90
45535;DHT22;35892;48.798;9.698;2022-12-07T06:44:23;3.50;99.90
45535;DHT22;35892;48.798;9.698;2022-12-07T06:46:50;3.50;99.90
45535;DHT22;35892;48.798;9.698;2022-12-07T06:49:21;3.50;99.90
45535;DHT22;35892;48.798;9.698;2022-12-07T06:51:48;3.50;99.90
45535;DHT22;35892;48.798;9.698;2022-12-07T06:54:15;3.50;99.90
45535;DHT22;35892;48.798;9.698;2022-12-07T06:56:42;3.60;99.90
45535;DHT22;35892;48.798;9.698;2022-12-07T06:59:11;3.60;99.90
45535;DHT22;35892;48.798;9.698;2022-12-07T07:01:38;3.50;99.90
45535;DHT22;35892;48.798;9.698;2022-12-07T07:04:05;3.50;99.90
45535;DHT22;35892;48.798;9.698;2022-12-07T07:06:32;3.50;99.90
45535;DHT22;35892;48.798;9.698;2022-12-07T07:09:04;3.50;99.90
45535;DHT22;35892;48.798;9.698;2022-12-07T07:11:33;3.50;99.90
45535;DHT22;35892;48.798;9.698;2022-12-07T07:14:00;3.60;99.90
45535;DHT22;35892;48.798;9.698;2022-12-07T07:16:31;3.70;99.90
45535;DHT22;35892;48.798;9.698;2022-12-07T07:19:00;3.70;99.90
45535;DHT22;35892;48.798;9.698;2022-12-07T07:21:32;3.60;99.90
45535;DHT22;35892;48.798;9.698;2022-12-07T07:23:58;3.60;99.90
45535;DHT22;35892;48.798;9.698;2022-12-07T07:26:30;3.60;99.90
45535;DHT22;35892;48.798;9.698;2022-12-07T07:28:56;3.60;99.90
45535;DHT22;35892;48.798;9.698;2022-12-07T07:31:23;3.60;99.90
45535;DHT22;35892;48.798;9.698;2022-12-07T07:33:50;3.60;99.90
45535;DHT22;35892;48.798;9.698;2022-12-07T07:36:17;3.70;99.90
45535;DHT22;35892;48.798;9.698;2022-12-07T07:38:43;3.70;99.90
45535;DHT22;35892;48.798;9.698;2022-12-07T07:41:15;3.80;99.90
45535;DHT22;35892;48.798;9.698;2022-12-07T07:43:44;3.80;99.90
45535;DHT22;35892;48.798;9.698;2022-12-07T07:46:11;3.80;99.90
45535;DHT22;35892;48.798;9.698;2022-12-07T07:48:40;3.90;99.90
45535;DHT22;35892;48.798;9.698;2022-12-07T07:51:10;3.90;99.90
45535;DHT22;35892;48.798;9.698;2022-12-07T07:53:58;3.90;99.90
45535;DHT22;35892;48.798;9.698;2022-12-07T07:56:27;4.00;99.90
45535;DHT22;35892;48.798;9.698;2022-12-07T07:58:55;4.00;99.90
45535;DHT22;35892;48.798;9.698;2022-12-07T08:01:24;4.00;99.90
45535;DHT22;35892;48.798;9.698;2022-12-07T08:03:51;4.00;99.90
45535;DHT22;35892;48.798;9.698;2022-12-07T08:06:18;4.00;99.90
45535;DHT22;35892;48.798;9.698;2022-12-07T08:08:47;4.10;99.90
45535;DHT22;35892;48.798;9.698;2022-12-07T08:11:16;4.10;99.90
45535;DHT22;35892;48.798;9.698;2022-12-07T08:13:48;4.10;99.90
45535;DHT22;35892;48.798;9.698;2022-12-07T08:16:15;4.10;99.90
45535;DHT22;35892;48.798;9.698;2022-12-07T08:18:42;4.20;99.90
45535;DHT22;35892;48.798;9.698;2022-12-07T08:21:12;4.30;99.90
45535;DHT22;35892;48.798;9.698;2022-12-07T08:23:42;4.30;99.90
45535;DHT22;35892;48.798;9.698;2022-12-07T08:26:15;4.30;99.90
45535;DHT22;35892;48.798;9.698;2022-12-07T08:28:43;4.40;99.90
45535;DHT22;35892;48.798;9.698;2022-12-07T08:31:17;4.40;99.90
45535;DHT22;35892;48.798;9.698;2022-12-07T08:33:48;4.40;99.90
45535;DHT22;35892;48.798;9.698;2022-12-07T08:36:15;4.50;99.90
45535;DHT22;35892;48.798;9.698;2022-12-07T08:38:45;4.60;99.90
45535;DHT22;35892;48.798;9.698;2022-12-07T08:41:32;4.60;99.90
45535;DHT22;35892;48.798;9.698;2022-12-07T08:44:01;4.70;99.90
45535;DHT22;35892;48.798;9.698;2022-12-07T08:46:41;4.60;99.90
45535;DHT22;35892;48.798;9.698;2022-12-07T08:49:22;4.60;99.90
45535;DHT22;35892;48.798;9.698;2022-12-07T08:51:50;4.70;99.90
45535;DHT22;35892;48.798;9.698;2022-12-07T08:54:18;4.80;99.90
45535;DHT22;35892;48.798;9.698;2022-12-07T08:56:47;4.80;99.90
45535;DHT22;35892;48.798;9.698;2022-12-07T08:59:20;4.90;99.90
45535;DHT22;35892;48.798;9.698;2022-12-07T09:01:49;4.90;99.90
45535;DHT22;35892;48.798;9.698;2022-12-07T09:04:18;5.00;99.90
45535;DHT22;35892;48.798;9.698;2022-12-07T09:06:47;5.00;99.90
45535;DHT22;35892;48.798;9.698;2022-12-07T09:09:15;5.10;99.90
45535;DHT22;35892;48.798;9.698;2022-12-07T09:11:44;5.10;99.90
45535;DHT22;35892;48.798;9.698;2022-12-07T09:14:13;5.10;99.90
45535;DHT22;35892;48.798;9.698;2022-12-07T09:16:45;5.20;99.90
45535;DHT22;35892;48.798;9.698;2022-12-07T09:19:19;5.20;99.90
45535;DHT22;35892;48.798;9.698;2022-12-07T09:21:46;5.30;99.90
45535;DHT22;35892;48.798;9.698;2022-12-07T09:24:13;5.40;99.90
45535;DHT22;35892;48.798;9.698;2022-12-07T09:26:40;5.50;99.90
45535;DHT22;35892;48.798;9.698;2022-12-07T09:29:07;5.50;99.90
45535;DHT22;35892;48.798;9.698;2022-12-07T09:31:38;5.50;99.90
45535;DHT22;35892;48.798;9.698;2022-12-07T09:34:08;5.50;99.90
45535;DHT22;35892;48.798;9.698;2022-12-07T09:36:37;5.60;99.90
45535;DHT22;35892;48.798;9.698;2022-12-07T09:39:09;5.60;99.90
45535;DHT22;35892;48.798;9.698;2022-12-07T09:41:41;5.60;99.90
45535;DHT22;35892;48.798;9.698;2022-12-07T09:44:14;5.70;99.90
45535;DHT22;35892;48.798;9.698;2022-12-07T09:46:45;5.70;99.90
45535;DHT22;35892;48.798;9.698;2022-12-07T09:49:21;5.80;99.90
45535;DHT22;35892;48.798;9.698;2022-12-07T09:54:30;5.90;99.90
45535;DHT22;35892;48.798;9.698;2022-12-07T09:56:58;6.00;99.90
45535;DHT22;35892;48.798;9.698;2022-12-07T09:59:27;6.10;99.90
45535;DHT22;35892;48.798;9.698;2022-12-07T10:02:37;6.10;99.90
45535;DHT22;35892;48.798;9.698;2022-12-07T10:05:06;6.00;99.90
45535;DHT22;35892;48.798;9.698;2022-12-07T10:07:36;6.00;99.90
45535;DHT22;35892;48.798;9.698;2022-12-07T10:10:14;6.00;99.90
45535;DHT22;35892;48.798;9.698;2022-12-07T10:13:08;6.00;99.90
45535;DHT22;35892;48.798;9.698;2022-12-07T10:18:40;6.10;99.90
45535;DHT22;35892;48.798;9.698;2022-12-07T10:24:00;6.10;99.90
45535;DHT22;35892;48.798;9.698;2022-12-07T10:26:51;6.30;99.90
45535;DHT22;35892;48.798;9.698;2022-12-07T10:34:37;6.30;99.90
45535;DHT22;35892;48.798;9.698;2022-12-07T10:39:57;6.40;99.90
45535;DHT22;35892;48.798;9.698;2022-12-07T10:42:27;6.40;99.90
45535;DHT22;35892;48.798;9.698;2022-12-07T10:45:14;6.40;99.90
45535;DHT22;35892;48.798;9.698;2022-12-07T10:48:05;6.50;99.90
45535;DHT22;35892;48.798;9.698;2022-12-07T10:56:50;6.50;99.90
45535;DHT22;35892;48.798;9.698;2022-12-07T11:01:57;6.60;99.90
45535;DHT22;35892;48.798;9.698;2022-12-07T11:07:06;6.50;99.90
45535;DHT22;35892;48.798;9.698;2022-12-07T11:12:33;6.40;99.90
45535;DHT22;35892;48.798;9.698;2022-12-07T11:18:09;6.50;99.90
45535;DHT22;35892;48.798;9.698;2022-12-07T11:21:09;6.50;99.90
45535;DHT22;35892;48.798;9.698;2022-12-07T11:29:53;6.30;99.90
45535;DHT22;35892;48.798;9.698;2022-12-07T11:41:01;6.20;99.90
45535;DHT22;35892;48.798;9.698;2022-12-07T11:43:52;6.30;99.90
45535;DHT22;35892;48.798;9.698;2022-12-07T11:46:31;6.40;99.90
45535;DHT22;35892;48.798;9.698;2022-12-07T11:49:17;6.50;99.90
45535;DHT22;35892;48.798;9.698;2022-12-07T11:51:51;6.60;99.90
45535;DHT22;35892;48.798;9.698;2022-12-07T11:54:23;6.60;99.90
45535;DHT22;35892;48.798;9.698;2022-12-07T11:56:52;6.70;99.90
45535;DHT22;35892;48.798;9.698;2022-12-07T11:59:31;6.60;99.90
45535;DHT22;35892;48.798;9.698;2022-12-07T12:02:21;6.50;99.90
45535;DHT22;35892;48.798;9.698;2022-12-07T12:05:19;6.50;99.90
45535;DHT22;35892;48.798;9.698;2022-12-07T12:07:59;6.50;99.90
45535;DHT22;35892;48.798;9.698;2022-12-07T12:10:58;6.60;99.90
45535;DHT22;35892;48.798;9.698;2022-12-07T12:22:39;6.90;99.90
45535;DHT22;35892;48.798;9.698;2022-12-07T12:25:57;6.90;99.90
45535;DHT22;35892;48.798;9.698;2022-12-07T12:31:29;6.60;99.90
45535;DHT22;35892;48.798;9.698;2022-12-07T12:33:59;6.60;99.90
45535;DHT22;35892;48.798;9.698;2022-12-07T12:39:14;6.80;99.90
45535;DHT22;35892;48.798;9.698;2022-12-07T12:59:31;6.40;99.90
45535;DHT22;35892;48.798;9.698;2022-12-07T13:04:50;6.50;99.90
45535;DHT22;35892;48.798;9.698;2022-12-07T13:34:04;6.20;99.90
45535;DHT22;35892;48.798;9.698;2022-12-07T13:36:39;6.20;99.90
45535;DHT22;35892;48.798;9.698;2022-12-07T13:39:19;6.20;99.90
45535;DHT22;35892;48.798;9.698;2022-12-07T13:41:57;6.20;99.90
45535;DHT22;35892;48.798;9.698;2022-12-07T13:44:34;6.00;99.90
45535;DHT22;35892;48.798;9.698;2022-12-07T13:49:58;5.90;99.90
45535;DHT22;35892;48.798;9.698;2022-12-07T13:52:25;5.80;99.90
45535;DHT22;35892;48.798;9.698;2022-12-07T13:55:05;5.70;99.90
45535;DHT22;35892;48.798;9.698;2022-12-07T13:57:35;5.70;99.90
45535;DHT22;35892;48.798;9.698;2022-12-07T14:00:16;5.80;99.90
45535;DHT22;35892;48.798;9.698;2022-12-07T14:03:23;5.80;99.90
45535;DHT22;35892;48.798;9.698;2022-12-07T14:06:07;5.90;99.90
45535;DHT22;35892;48.798;9.698;2022-12-07T14:08:43;5.80;99.90
45535;DHT22;35892;48.798;9.698;2022-12-07T14:11:17;5.70;99.90
45535;DHT22;35892;48.798;9.698;2022-12-07T14:13:56;5.70;99.90
45535;DHT22;35892;48.798;9.698;2022-12-07T14:16:28;5.80;99.90
45535;DHT22;35892;48.798;9.698;2022-12-07T14:18:57;5.70;99.90
45535;DHT22;35892;48.798;9.698;2022-12-07T14:21:27;5.70;99.90
45535;DHT22;35892;48.798;9.698;2022-12-07T14:24:19;5.70;99.90
45535;DHT22;35892;48.798;9.698;2022-12-07T14:26:48;5.60;99.90
45535;DHT22;35892;48.798;9.698;2022-12-07T14:31:49;5.60;99.90
45535;DHT22;35892;48.798;9.698;2022-12-07T14:34:16;5.70;99.90
45535;DHT22;35892;48.798;9.698;2022-12-07T14:36:43;5.70;99.90
45535;DHT22;35892;48.798;9.698;2022-12-07T14:39:09;5.60;99.90
45535;DHT22;35892;48.798;9.698;2022-12-07T14:41:39;5.70;99.90
45535;DHT22;35892;48.798;9.698;2022-12-07T14:44:23;5.70;99.90
45535;DHT22;35892;48.798;9.698;2022-12-07T14:46:57;5.70;99.90
45535;DHT22;35892;48.798;9.698;2022-12-07T14:49:44;5.70;99.90
45535;DHT22;35892;48.798;9.698;2022-12-07T14:52:16;5.60;99.90
45535;DHT22;35892;48.798;9.698;2022-12-07T14:55:07;5.50;99.90
45535;DHT22;35892;48.798;9.698;2022-12-07T14:57:38;5.50;99.90
45535;DHT22;35892;48.798;9.698;2022-12-07T15:00:06;5.40;99.90
45535;DHT22;35892;48.798;9.698;2022-12-07T15:02:35;5.40;99.90
45535;DHT22;35892;48.798;9.698;2022-12-07T15:05:04;5.40;99.90
45535;DHT22;35892;48.798;9.698;2022-12-07T15:07:38;5.40;99.90
45535;DHT22;35892;48.798;9.698;2022-12-07T15:10:06;5.40;99.90
45535;DHT22;35892;48.798;9.698;2022-12-07T15:12:33;5.40;99.90
45535;DHT22;35892;48.798;9.698;2022-12-07T15:15:02;5.30;99.90
45535;DHT22;35892;48.798;9.698;2022-12-07T15:17:30;5.20;99.90
45535;DHT22;35892;48.798;9.698;2022-12-07T15:19:58;5.20;99.90
45535;DHT22;35892;48.798;9.698;2022-12-07T15:22:26;5.10;99.90
45535;DHT22;35892;48.798;9.698;2022-12-07T15:24:55;5.00;99.90
45535;DHT22;35892;48.798;9.698;2022-12-07T15:27:22;4.90;99.90
45535;DHT22;35892;48.798;9.698;2022-12-07T15:29:49;4.90;99.90
45535;DHT22;35892;48.798;9.698;2022-12-07T15:32:16;4.90;99.90
45535;DHT22;35892;48.798;9.698;2022-12-07T15:34:45;4.80;99.90
45535;DHT22;35892;48.798;9.698;2022-12-07T15:37:12;4.70;99.90
45535;DHT22;35892;48.798;9.698;2022-12-07T15:39:41;4.70;99.90
45535;DHT22;35892;48.798;9.698;2022-12-07T15:42:08;4.60;99.90
45535;DHT22;35892;48.798;9.698;2022-12-07T15:44:35;4.50;99.90
45535;DHT22;35892;48.798;9.698;2022-12-07T15:47:20;4.40;99.90
45535;DHT22;35892;48.798;9.698;2022-12-07T15:49:49;4.40;99.90
45535;DHT22;35892;48.798;9.698;2022-12-07T15:52:19;4.40;99.90
45535;DHT22;35892;48.798;9.698;2022-12-07T15:54:45;4.40;99.90
45535;DHT22;35892;48.798;9.698;2022-12-07T15:57:13;4.40;99.90
45535;DHT22;35892;48.798;9.698;2022-12-07T15:59:40;4.40;99.90
45535;DHT22;35892;48.798;9.698;2022-12-07T16:02:09;4.40;99.90
45535;DHT22;35892;48.798;9.698;2022-12-07T16:04:36;4.40;99.90
45535;DHT22;35892;48.798;9.698;2022-12-07T16:07:05;4.40;99.90
45535;DHT22;35892;48.798;9.698;2022-12-07T16:09:32;4.30;99.90
45535;DHT22;35892;48.798;9.698;2022-12-07T16:12:01;4.40;99.90
45535;DHT22;35892;48.798;9.698;2022-12-07T16:14:28;4.40;99.90
45535;DHT22;35892;48.798;9.698;2022-12-07T16:16:54;4.40;99.90
45535;DHT22;35892;48.798;9.698;2022-12-07T16:19:21;4.40;99.90
45535;DHT22;35892;48.798;9.698;2022-12-07T16:21:48;4.50;99.90
45535;DHT22;35892;48.798;9.698;2022-12-07T16:24:15;4.50;99.90
45535;DHT22;35892;48.798;9.698;2022-12-07T16:26:43;4.50;99.90
45535;DHT22;35892;48.798;9.698;2022-12-07T16:29:17;4.50;99.90
45535;DHT22;35892;48.798;9.698;2022-12-07T16:31:44;4.50;99.90
45535;DHT22;35892;48.798;9.698;2022-12-07T16:34:13;4.50;99.90
45535;DHT22;35892;48.798;9.698;2022-12-07T16:36:40;4.50;99.90
45535;DHT22;35892;48.798;9.698;2022-12-07T16:39:27;4.50;99.90
45535;DHT22;35892;48.798;9.698;2022-12-07T16:41:54;4.50;99.90
45535;DHT22;35892;48.798;9.698;2022-12-07T16:44:21;4.50;99.90
45535;DHT22;35892;48.798;9.698;2022-12-07T16:46:50;4.60;99.90
45535;DHT22;35892;48.798;9.698;2022-12-07T16:49:19;4.60;99.90
45535;DHT22;35892;48.798;9.698;2022-12-07T16:51:49;4.60;99.90
45535;DHT22;35892;48.798;9.698;2022-12-07T16:54:36;4.50;99.90
45535;DHT22;35892;48.798;9.698;2022-12-07T16:57:05;4.50;99.90
45535;DHT22;35892;48.798;9.698;2022-12-07T16:59:34;4.40;99.90
45535;DHT22;35892;48.798;9.698;2022-12-07T17:02:03;4.40;99.90
45535;DHT22;35892;48.798;9.698;2022-12-07T17:04:33;4.40;99.90
45535;DHT22;35892;48.798;9.698;2022-12-07T17:07:03;4.50;99.90
45535;DHT22;35892;48.798;9.698;2022-12-07T17:09:30;4.50;99.90
45535;DHT22;35892;48.798;9.698;2022-12-07T17:11:57;4.50;99.90
45535;DHT22;35892;48.798;9.698;2022-12-07T17:14:24;4.50;99.90
45535;DHT22;35892;48.798;9.698;2022-12-07T17:17:09;4.50;99.90
45535;DHT22;35892;48.798;9.698;2022-12-07T17:19:36;4.50;99.90
45535;DHT22;35892;48.798;9.698;2022-12-07T17:22:05;4.50;99.90
45535;DHT22;35892;48.798;9.698;2022-12-07T17:24:38;4.50;99.90
45535;DHT22;35892;48.798;9.698;2022-12-07T17:27:07;4.50;99.90
45535;DHT22;35892;48.798;9.698;2022-12-07T17:29:34;4.50;99.90
45535;DHT22;35892;48.798;9.698;2022-12-07T17:32:01;4.50;99.90
45535;DHT22;35892;48.798;9.698;2022-12-07T17:34:28;4.50;99.90
45535;DHT22;35892;48.798;9.698;2022-12-07T17:36:59;4.50;99.90
45535;DHT22;35892;48.798;9.698;2022-12-07T17:39:26;4.50;99.90
45535;DHT22;35892;48.798;9.698;2022-12-07T17:41:53;4.40;99.90
45535;DHT22;35892;48.798;9.698;2022-12-07T17:44:38;4.40;99.90
45535;DHT22;35892;48.798;9.698;2022-12-07T17:47:07;4.50;99.90
45535;DHT22;35892;48.798;9.698;2022-12-07T17:49:37;4.40;99.90
45535;DHT22;35892;48.798;9.698;2022-12-07T17:52:06;4.40;99.90
45535;DHT22;35892;48.798;9.698;2022-12-07T17:54:51;4.30;99.90
45535;DHT22;35892;48.798;9.698;2022-12-07T17:57:18;4.30;99.90
45535;DHT22;35892;48.798;9.698;2022-12-07T17:59:45;4.30;99.90
45535;DHT22;35892;48.798;9.698;2022-12-07T18:02:12;4.40;99.90
45535;DHT22;35892;48.798;9.698;2022-12-07T18:04:41;4.50;99.90
45535;DHT22;35892;48.798;9.698;2022-12-07T18:07:10;4.50;99.90
45535;DHT22;35892;48.798;9.698;2022-12-07T18:09:37;4.50;99.90
45535;DHT22;35892;48.798;9.698;2022-12-07T18:12:04;4.40;99.90
45535;DHT22;35892;48.798;9.698;2022-12-07T18:14:31;4.40;99.90
45535;DHT22;35892;48.798;9.698;2022-12-07T18:17:03;4.40;99.90
45535;DHT22;35892;48.798;9.698;2022-12-07T18:19:30;4.40;99.90
45535;DHT22;35892;48.798;9.698;2022-12-07T18:21:58;4.30;99.90
45535;DHT22;35892;48.798;9.698;2022-12-07T18:24:25;4.30;99.90
45535;DHT22;35892;48.798;9.698;2022-12-07T18:27:00;4.30;99.90